createdAt,value
2018-03-31T00:00:44.988Z,3.33
2018-03-31T00:03:12.067Z,2.80
2018-03-31T00:05:39.884Z,3.10
2018-03-31T00:08:06.919Z,3.93
2018-03-31T00:10:33.984Z,3.07
2018-03-31T00:13:01.174Z,2.30
2018-03-31T00:15:28.264Z,2.70
2018-03-31T00:17:55.321Z,2.30
2018-03-31T00:20:22.388Z,2.73
2018-03-31T00:22:49.462Z,2.80
2018-03-31T00:25:17.278Z,2.00
2018-03-31T00:27:44.335Z,2.50
2018-03-31T00:30:11.424Z,3.83
2018-03-31T00:32:39.538Z,3.60
2018-03-31T00:35:06.590Z,3.10
2018-03-31T00:37:33.661Z,3.93
2018-03-31T00:40:00.779Z,2.20
2018-03-31T00:42:27.856Z,1.73
2018-03-31T00:44:54.924Z,1.80
2018-03-31T00:47:22.920Z,2.30
2018-03-31T00:49:50.006Z,1.57
2018-03-31T00:52:17.052Z,1.70
2018-03-31T00:54:44.099Z,1.67
2018-03-31T00:57:11.162Z,1.50
2018-03-31T00:59:38.229Z,1.30
2018-03-31T01:02:05.412Z,1.67
2018-03-31T01:04:32.452Z,1.63
2018-03-31T01:06:59.500Z,1.53
2018-03-31T01:09:26.557Z,1.57
2018-03-31T01:11:53.623Z,1.77
2018-03-31T01:14:20.711Z,2.10
2018-03-31T01:16:47.759Z,1.60
2018-03-31T01:19:14.820Z,1.67
2018-03-31T01:21:42.670Z,1.70
2018-03-31T01:24:09.706Z,2.10
2018-03-31T01:26:36.784Z,1.70
2018-03-31T01:29:04.667Z,1.90
2018-03-31T01:31:31.890Z,1.83
2018-03-31T01:33:58.960Z,1.70
2018-03-31T01:36:26.020Z,2.00
2018-03-31T01:38:53.109Z,2.20
2018-03-31T01:41:20.176Z,2.10
2018-03-31T01:43:47.239Z,2.00
2018-03-31T01:46:15.086Z,2.10
2018-03-31T01:48:42.163Z,1.80
2018-03-31T01:51:10.026Z,2.10
2018-03-31T01:53:37.859Z,1.63
2018-03-31T01:56:04.918Z,1.93
2018-03-31T01:58:31.995Z,1.90
2018-03-31T02:00:59.063Z,1.90
2018-03-31T02:03:26.137Z,2.30
2018-03-31T02:05:53.181Z,2.10
2018-03-31T02:08:20.231Z,2.07
2018-03-31T02:10:47.294Z,2.23
2018-03-31T02:13:14.390Z,2.30
2018-03-31T02:15:41.468Z,2.47
2018-03-31T02:18:08.538Z,2.50
2018-03-31T02:20:35.620Z,2.40
2018-03-31T02:23:03.495Z,2.13
2018-03-31T02:25:30.564Z,2.00
2018-03-31T02:27:57.700Z,2.07
2018-03-31T02:30:24.771Z,1.90
2018-03-31T02:32:51.810Z,2.77
2018-03-31T02:35:18.876Z,2.00
2018-03-31T02:37:45.928Z,1.80
2018-03-31T02:40:12.982Z,2.30
2018-03-31T02:42:40.079Z,1.90
2018-03-31T02:45:07.910Z,2.27
2018-03-31T02:47:35.060Z,2.20
2018-03-31T02:50:02.122Z,1.87
2018-03-31T02:52:29.936Z,2.53
2018-03-31T02:54:57.014Z,2.13
2018-03-31T02:57:24.118Z,2.07
2018-03-31T02:59:51.180Z,2.70
2018-03-31T03:02:18.245Z,3.00
2018-03-31T03:04:45.299Z,2.20
2018-03-31T03:07:12.349Z,2.90
2018-03-31T03:09:39.453Z,2.80
2018-03-31T03:12:06.516Z,2.27
2018-03-31T03:14:33.569Z,2.43
2018-03-31T03:17:00.648Z,3.00
2018-03-31T03:19:27.841Z,2.75
2018-03-31T03:21:54.910Z,3.05
2018-03-31T03:24:21.990Z,2.30
2018-03-31T03:26:49.048Z,2.50
2018-03-31T03:29:16.103Z,2.07
2018-03-31T03:31:43.948Z,2.30
2018-03-31T03:34:11.024Z,2.45
2018-03-31T03:36:38.829Z,2.80
2018-03-31T03:39:05.912Z,2.40
2018-03-31T03:41:32.967Z,2.55
2018-03-31T03:44:00.026Z,2.33
2018-03-31T03:46:27.867Z,2.35
2018-03-31T03:48:54.927Z,2.12
2018-03-31T03:51:21.968Z,2.17
2018-03-31T03:53:49.048Z,2.70
2018-03-31T03:56:16.103Z,2.90
2018-03-31T03:58:43.141Z,2.97
2018-03-31T04:01:10.978Z,2.83
2018-03-31T04:03:38.030Z,2.50
2018-03-31T04:06:05.097Z,3.05
2018-03-31T04:08:32.939Z,2.60
2018-03-31T04:10:59.986Z,3.50
2018-03-31T04:13:27.048Z,3.05
2018-03-31T04:15:54.894Z,2.35
2018-03-31T04:18:21.954Z,3.10
2018-03-31T04:20:49.005Z,2.65
2018-03-31T04:23:16.069Z,3.22
2018-03-31T04:25:43.889Z,3.10
2018-03-31T04:28:10.964Z,2.78
2018-03-31T04:30:38.062Z,3.80
2018-03-31T04:33:05.371Z,2.78
2018-03-31T04:35:33.198Z,2.85
2018-03-31T04:38:00.280Z,3.05
2018-03-31T04:40:27.347Z,3.42
2018-03-31T04:42:54.412Z,3.97
2018-03-31T04:45:21.509Z,3.65
2018-03-31T04:47:48.573Z,3.73
2018-03-31T04:50:15.647Z,3.60
2018-03-31T04:52:43.489Z,3.60
2018-03-31T04:55:10.544Z,3.95
2018-03-31T04:57:38.380Z,4.00
2018-03-31T05:00:05.445Z,4.18
2018-03-31T05:02:32.501Z,4.50
2018-03-31T05:05:00.332Z,5.20
2018-03-31T05:07:27.397Z,6.30
2018-03-31T05:09:54.441Z,6.45
2018-03-31T05:12:21.596Z,6.70
2018-03-31T05:14:48.667Z,7.03
2018-03-31T05:17:16.491Z,7.35
2018-03-31T05:19:43.563Z,7.30
2018-03-31T05:22:10.673Z,7.60
2018-03-31T05:24:37.726Z,7.18
2018-03-31T05:27:04.863Z,7.53
2018-03-31T05:29:32.178Z,7.45
2018-03-31T05:32:00.008Z,8.23
2018-03-31T05:34:27.068Z,8.33
2018-03-31T05:36:54.131Z,8.90
2018-03-31T05:39:21.176Z,8.00
2018-03-31T05:41:48.247Z,7.33
2018-03-31T05:44:15.300Z,9.48
2018-03-31T05:46:42.400Z,8.90
2018-03-31T05:49:09.513Z,9.07
2018-03-31T05:51:37.297Z,9.30
2018-03-31T05:54:04.385Z,10.30
2018-03-31T05:56:31.527Z,10.07
2018-03-31T05:58:58.583Z,12.00
2018-03-31T06:01:25.644Z,12.43
2018-03-31T06:03:53.515Z,13.03
2018-03-31T06:06:21.351Z,11.93
2018-03-31T06:08:48.518Z,12.70
2018-03-31T06:11:15.642Z,11.52
2018-03-31T06:13:42.729Z,12.23
2018-03-31T06:16:09.792Z,13.10
2018-03-31T06:18:36.919Z,13.73
2018-03-31T06:21:04.867Z,12.87
2018-03-31T06:23:32.089Z,13.60
2018-03-31T06:25:59.185Z,14.50
2018-03-31T06:28:27.021Z,15.57
2018-03-31T06:30:54.062Z,15.10
2018-03-31T06:33:21.131Z,14.63
2018-03-31T06:35:48.229Z,14.37
2018-03-31T06:38:15.297Z,15.60
2018-03-31T06:40:42.360Z,16.70
2018-03-31T06:43:09.498Z,17.07
2018-03-31T06:45:36.687Z,17.42
2018-03-31T06:48:03.753Z,15.47
2018-03-31T06:50:30.846Z,16.73
2018-03-31T06:52:57.993Z,16.10
2018-03-31T06:55:25.051Z,17.00
2018-03-31T06:57:52.095Z,16.80
2018-03-31T07:00:19.143Z,16.77
2018-03-31T07:02:46.233Z,17.93
2018-03-31T07:05:14.053Z,17.10
2018-03-31T07:07:41.132Z,19.17
2018-03-31T07:10:08.183Z,16.47
2018-03-31T07:12:35.224Z,18.27
2018-03-31T07:15:02.412Z,16.87
2018-03-31T07:17:29.476Z,15.07
2018-03-31T07:19:56.552Z,18.50
2018-03-31T07:22:23.623Z,19.10
2018-03-31T07:24:51.502Z,17.80
2018-03-31T07:27:19.361Z,18.57
2018-03-31T07:29:47.239Z,17.60
2018-03-31T07:32:14.386Z,18.77
2018-03-31T07:34:41.522Z,17.73
2018-03-31T07:37:08.565Z,19.00
2018-03-31T07:39:35.678Z,18.07
2018-03-31T07:42:02.740Z,19.13
2018-03-31T07:44:29.781Z,19.87
2018-03-31T07:46:56.846Z,21.43
2018-03-31T07:49:23.896Z,20.10
2018-03-31T07:51:50.939Z,20.33
2018-03-31T07:54:17.993Z,21.07
2018-03-31T07:56:45.040Z,18.93
2018-03-31T07:59:12.355Z,19.80
2018-03-31T08:01:39.423Z,18.60
2018-03-31T08:04:06.488Z,18.10
2018-03-31T08:06:33.552Z,18.40
2018-03-31T08:09:00.600Z,17.17
2018-03-31T08:11:28.439Z,17.77
2018-03-31T08:13:55.497Z,16.93
2018-03-31T08:16:22.539Z,19.07
2018-03-31T08:18:49.617Z,15.93
2018-03-31T08:21:17.435Z,16.53
2018-03-31T08:23:44.496Z,15.87
2018-03-31T08:26:11.583Z,16.83
2018-03-31T08:28:39.538Z,16.70
2018-03-31T08:31:07.378Z,15.80
2018-03-31T08:33:34.486Z,14.87
2018-03-31T08:36:01.623Z,14.13
2018-03-31T08:38:29.447Z,15.27
2018-03-31T08:40:56.547Z,15.10
2018-03-31T08:43:23.609Z,15.77
2018-03-31T08:45:50.664Z,14.83
2018-03-31T08:48:17.725Z,15.27
2018-03-31T08:50:44.760Z,14.43
2018-03-31T08:53:11.798Z,13.10
2018-03-31T08:55:38.864Z,13.60
2018-03-31T08:58:05.918Z,12.87
2018-03-31T09:00:33.058Z,12.50
2018-03-31T09:03:00.132Z,15.50
2018-03-31T09:05:27.202Z,14.33
2018-03-31T09:07:55.031Z,13.60
2018-03-31T09:10:22.078Z,12.80
2018-03-31T09:12:49.212Z,13.87
2018-03-31T09:15:16.254Z,12.77
2018-03-31T09:17:43.307Z,11.70
2018-03-31T09:20:10.395Z,14.77
2018-03-31T09:22:37.441Z,13.93
2018-03-31T09:25:04.474Z,14.20
2018-03-31T09:27:31.679Z,14.10
2018-03-31T09:29:58.738Z,13.00
2018-03-31T09:32:25.795Z,10.50
2018-03-31T09:34:52.860Z,10.80
2018-03-31T09:37:19.923Z,12.30
2018-03-31T09:39:46.961Z,10.43
2018-03-31T09:42:14.062Z,10.47
2018-03-31T09:44:41.105Z,12.30
2018-03-31T09:47:08.182Z,12.70
2018-03-31T09:49:35.261Z,10.70
2018-03-31T09:52:02.302Z,9.47
2018-03-31T09:54:29.337Z,8.20
2018-03-31T09:56:56.405Z,9.30
2018-03-31T09:59:23.445Z,12.43
2018-03-31T10:01:50.489Z,7.90
2018-03-31T10:04:17.560Z,8.20
2018-03-31T10:06:46.129Z,6.93
2018-03-31T10:09:13.166Z,6.70
2018-03-31T10:11:40.269Z,6.70
2018-03-31T10:14:07.306Z,7.20
2018-03-31T10:16:34.346Z,7.57
2018-03-31T10:19:02.203Z,5.27
2018-03-31T10:21:30.029Z,6.00
2018-03-31T10:23:57.083Z,8.10
2018-03-31T10:26:24.250Z,9.40
2018-03-31T10:28:51.289Z,7.90
2018-03-31T10:31:18.343Z,8.80
2018-03-31T10:33:45.432Z,8.47
2018-03-31T10:36:12.507Z,10.00
2018-03-31T10:38:39.566Z,9.00
2018-03-31T10:41:06.644Z,9.17
2018-03-31T10:43:33.826Z,9.85
2018-03-31T10:46:00.875Z,9.50
2018-03-31T10:48:27.959Z,9.30
2018-03-31T10:50:55.037Z,10.40
2018-03-31T10:53:22.874Z,9.13
2018-03-31T10:55:49.958Z,9.57
2018-03-31T10:58:17.790Z,9.70
2018-03-31T11:00:44.833Z,8.33
2018-03-31T11:03:11.925Z,8.03
2018-03-31T11:05:39.734Z,8.30
2018-03-31T11:08:06.766Z,9.00
2018-03-31T11:10:33.843Z,9.23
2018-03-31T11:13:00.909Z,6.87
2018-03-31T11:15:27.976Z,6.43
2018-03-31T11:17:55.797Z,7.17
2018-03-31T11:20:22.876Z,5.70
2018-03-31T11:22:49.935Z,6.03
2018-03-31T11:25:17.782Z,5.60
2018-03-31T11:27:44.838Z,6.30
2018-03-31T11:30:11.889Z,6.33
2018-03-31T11:32:38.953Z,5.07
2018-03-31T11:35:06.754Z,4.53
2018-03-31T11:37:33.807Z,4.30
2018-03-31T11:40:00.865Z,3.80
2018-03-31T11:42:28.087Z,4.20
2018-03-31T11:44:55.876Z,3.37
2018-03-31T11:47:22.937Z,4.20
2018-03-31T11:49:49.998Z,3.63
2018-03-31T11:52:17.051Z,3.40
2018-03-31T11:54:44.125Z,3.40
2018-03-31T11:57:11.195Z,3.87
2018-03-31T11:59:38.259Z,4.00
2018-03-31T12:02:05.328Z,3.77
2018-03-31T12:04:32.369Z,3.40
2018-03-31T12:06:59.415Z,3.60
2018-03-31T12:09:26.506Z,3.60
2018-03-31T12:11:53.555Z,2.70
2018-03-31T12:14:20.614Z,3.10
2018-03-31T12:16:48.446Z,3.10
2018-03-31T12:19:15.496Z,3.17
2018-03-31T12:21:42.548Z,3.60
2018-03-31T12:24:09.618Z,3.30
2018-03-31T12:26:36.662Z,3.00
2018-03-31T12:29:03.712Z,3.37
2018-03-31T12:31:30.782Z,4.30
2018-03-31T12:33:57.831Z,4.63
2018-03-31T12:36:24.887Z,3.77
2018-03-31T12:38:51.977Z,3.40
2018-03-31T12:41:19.035Z,3.63
2018-03-31T12:43:46.086Z,3.40
2018-03-31T12:46:13.234Z,3.63
2018-03-31T12:48:40.276Z,3.20
2018-03-31T12:51:08.090Z,4.63
2018-03-31T12:53:35.158Z,4.33
2018-03-31T12:56:02.223Z,3.90
2018-03-31T12:58:30.151Z,3.63
2018-03-31T13:00:57.242Z,3.10
2018-03-31T13:03:25.055Z,3.33
2018-03-31T13:05:52.100Z,2.73
2018-03-31T13:08:19.193Z,3.10
2018-03-31T13:10:47.029Z,2.70
2018-03-31T13:13:14.075Z,2.40
2018-03-31T13:15:41.169Z,2.28
2018-03-31T13:18:08.226Z,2.40
2018-03-31T13:20:35.287Z,2.60
2018-03-31T13:23:02.385Z,2.37
2018-03-31T13:25:30.211Z,2.10
2018-03-31T13:27:57.252Z,2.80
2018-03-31T13:30:24.337Z,2.63
2018-03-31T13:32:51.378Z,3.13
2018-03-31T13:35:18.409Z,2.60
2018-03-31T13:37:45.478Z,2.60
2018-03-31T13:40:12.539Z,3.47
2018-03-31T13:42:40.383Z,3.20
2018-03-31T13:45:07.471Z,3.50
2018-03-31T13:47:35.269Z,2.93
2018-03-31T13:50:02.386Z,3.30
2018-03-31T13:52:29.480Z,3.13
2018-03-31T13:54:56.552Z,3.00
2018-03-31T13:57:23.582Z,3.03
2018-03-31T13:59:50.671Z,3.20
2018-03-31T14:02:18.503Z,3.10
2018-03-31T14:04:45.553Z,3.20
2018-03-31T14:07:12.627Z,3.80
2018-03-31T14:09:39.674Z,3.90
2018-03-31T14:12:07.458Z,3.63
2018-03-31T14:14:34.548Z,3.60
2018-03-31T14:17:01.606Z,3.40
2018-03-31T14:19:30.081Z,3.17
2018-03-31T14:21:57.177Z,3.03
2018-03-31T14:24:24.239Z,3.70
2018-03-31T14:26:51.287Z,3.23
2018-03-31T14:29:18.353Z,3.40
2018-03-31T14:31:45.432Z,3.43
2018-03-31T14:34:12.514Z,3.30
2018-03-31T14:36:39.585Z,3.33
2018-03-31T14:39:07.353Z,3.43
2018-03-31T14:41:34.488Z,3.83
2018-03-31T14:44:01.589Z,3.90
2018-03-31T14:46:28.748Z,3.47
2018-03-31T14:48:55.801Z,3.13
2018-03-31T14:51:23.752Z,3.40
2018-03-31T14:53:50.878Z,3.60
2018-03-31T14:56:17.939Z,4.53
2018-03-31T14:58:45.007Z,3.27
2018-03-31T15:01:12.073Z,2.93
2018-03-31T15:03:39.291Z,2.67
2018-03-31T15:06:06.450Z,3.40
2018-03-31T15:08:33.611Z,3.30
2018-03-31T15:11:00.656Z,4.00
2018-03-31T15:13:28.178Z,4.20
2018-03-31T15:15:56.019Z,3.97
2018-03-31T15:18:23.049Z,3.80
2018-03-31T15:20:50.132Z,3.47
2018-03-31T15:23:17.975Z,3.17
2018-03-31T15:25:45.017Z,3.50
2018-03-31T15:28:12.113Z,5.10
2018-03-31T15:30:39.945Z,4.20
2018-03-31T15:33:07.003Z,3.40
2018-03-31T15:35:34.349Z,3.53
2018-03-31T15:38:01.421Z,3.53
2018-03-31T15:40:28.521Z,3.93
2018-03-31T15:42:55.592Z,3.43
2018-03-31T15:45:23.411Z,3.70
2018-03-31T15:47:50.463Z,4.00
2018-03-31T15:50:17.671Z,3.93
2018-03-31T15:52:44.730Z,3.13
2018-03-31T15:55:11.779Z,3.30
2018-03-31T15:57:38.865Z,3.30
2018-03-31T16:00:06.029Z,3.40
2018-03-31T16:02:33.076Z,4.13
2018-03-31T16:05:00.150Z,3.90
2018-03-31T16:07:27.212Z,3.57
2018-03-31T16:09:54.263Z,3.57
2018-03-31T16:12:21.339Z,3.20
2018-03-31T16:14:49.154Z,3.27
2018-03-31T16:17:16.209Z,2.60
2018-03-31T16:19:43.278Z,3.10
2018-03-31T16:22:11.159Z,3.87
2018-03-31T16:24:38.977Z,4.13
2018-03-31T16:27:06.076Z,13.10
2018-03-31T16:29:33.900Z,16.30
2018-03-31T16:32:00.942Z,18.17
2018-03-31T16:34:28.801Z,18.67
2018-03-31T16:36:55.896Z,21.50
2018-03-31T16:39:23.018Z,21.87
2018-03-31T16:41:50.108Z,24.00
2018-03-31T16:44:17.945Z,24.43
2018-03-31T16:46:45.056Z,25.20
2018-03-31T16:49:12.171Z,25.07
2018-03-31T16:51:39.297Z,24.83
2018-03-31T16:54:06.354Z,25.37
2018-03-31T16:56:33.503Z,24.17
2018-03-31T16:59:00.569Z,24.07
2018-03-31T17:01:27.659Z,25.17
2018-03-31T17:03:54.813Z,25.83
2018-03-31T17:06:21.827Z,23.80
2018-03-31T17:08:48.881Z,28.47
2018-03-31T17:11:15.993Z,27.60
2018-03-31T17:13:43.136Z,25.60
2018-03-31T17:16:10.333Z,27.80
2018-03-31T17:18:37.424Z,24.37
2018-03-31T17:21:05.260Z,27.80
2018-03-31T17:23:32.374Z,28.50
2018-03-31T17:25:59.543Z,28.57
2018-03-31T17:28:26.605Z,28.70
2018-03-31T17:30:53.649Z,30.30
2018-03-31T17:33:20.750Z,25.60
2018-03-31T17:35:47.813Z,26.97
2018-03-31T17:38:14.863Z,30.43
2018-03-31T17:40:41.976Z,28.20
2018-03-31T17:43:09.051Z,25.23
2018-03-31T17:45:36.118Z,26.87
2018-03-31T17:48:03.186Z,34.47
2018-03-31T17:50:30.230Z,30.23
2018-03-31T17:52:57.283Z,27.83
2018-03-31T17:55:24.405Z,29.67
2018-03-31T17:57:51.451Z,30.63
2018-03-31T18:00:18.513Z,29.30
2018-03-31T18:02:45.596Z,30.03
2018-03-31T18:05:13.427Z,31.60
2018-03-31T18:07:40.496Z,31.80
2018-03-31T18:10:09.789Z,31.23
2018-03-31T18:12:36.883Z,34.10
2018-03-31T18:15:03.928Z,34.30
2018-03-31T18:17:30.992Z,32.70
2018-03-31T18:19:58.065Z,30.70
2018-03-31T18:22:25.135Z,32.80
2018-03-31T18:24:52.214Z,32.93
2018-03-31T18:27:19.335Z,32.90
2018-03-31T18:29:46.353Z,32.60
2018-03-31T18:32:13.441Z,32.63
2018-03-31T18:34:40.506Z,31.83
2018-03-31T18:37:07.550Z,33.70
2018-03-31T18:39:34.641Z,35.28
2018-03-31T18:42:01.698Z,34.87
2018-03-31T18:44:28.756Z,39.33
2018-03-31T18:46:55.826Z,49.30
2018-03-31T18:49:22.880Z,49.90
2018-03-31T18:51:49.968Z,51.40
2018-03-31T18:54:17.036Z,46.40
2018-03-31T18:56:44.144Z,46.00
2018-03-31T18:59:11.182Z,44.00
2018-03-31T19:01:38.247Z,42.00
2018-03-31T19:04:05.282Z,42.03
2018-03-31T19:06:32.377Z,43.90
2018-03-31T19:08:59.470Z,43.43
2018-03-31T19:11:26.531Z,46.13
2018-03-31T19:13:53.584Z,46.23
2018-03-31T19:16:20.685Z,46.87
2018-03-31T19:18:48.519Z,43.13
2018-03-31T19:21:15.577Z,41.20
2018-03-31T19:23:42.921Z,41.10
2018-03-31T19:26:09.978Z,41.43
2018-03-31T19:28:37.015Z,41.23
2018-03-31T19:31:04.092Z,44.50
2018-03-31T19:33:31.179Z,42.03
2018-03-31T19:36:03.836Z,43.33
2018-03-31T19:38:30.915Z,44.60
2018-03-31T19:40:57.981Z,44.63
2018-03-31T19:43:25.059Z,45.57
2018-03-31T19:45:52.127Z,45.77
2018-03-31T19:48:19.211Z,44.43
2018-03-31T19:50:46.332Z,45.77
2018-03-31T19:53:13.375Z,41.67
2018-03-31T19:55:40.424Z,45.47
2018-03-31T19:58:07.638Z,45.63
2018-03-31T20:00:34.687Z,48.10
2018-03-31T20:03:01.725Z,44.93
2018-03-31T20:05:28.907Z,49.77
2018-03-31T20:07:56.724Z,46.47
2018-03-31T20:10:23.812Z,49.60
2018-03-31T20:12:51.660Z,46.20
2018-03-31T20:15:18.703Z,46.77
2018-03-31T20:17:45.762Z,48.80
2018-03-31T20:20:12.845Z,47.50
2018-03-31T20:22:40.055Z,49.23
2018-03-31T20:25:07.249Z,47.93
2018-03-31T20:27:34.331Z,49.00
2018-03-31T20:30:01.379Z,50.20
2018-03-31T20:32:28.424Z,45.93
2018-03-31T20:34:55.516Z,44.03
2018-03-31T20:37:23.349Z,46.37
2018-03-31T20:39:50.411Z,47.33
2018-03-31T20:42:17.492Z,46.17
2018-03-31T20:44:44.561Z,46.20
2018-03-31T20:47:11.607Z,45.53
2018-03-31T20:49:38.695Z,48.30
2018-03-31T20:52:05.743Z,51.20
2018-03-31T20:54:32.850Z,55.83
2018-03-31T20:56:59.933Z,62.93
2018-03-31T20:59:27.005Z,60.90
2018-03-31T21:01:54.077Z,66.87
2018-03-31T21:04:21.145Z,63.93
2018-03-31T21:06:48.182Z,61.67
2018-03-31T21:09:15.238Z,62.03
2018-03-31T21:11:42.395Z,63.77
2018-03-31T21:14:09.455Z,67.73
2018-03-31T21:16:37.438Z,63.30
2018-03-31T21:19:04.505Z,63.07
2018-03-31T21:21:31.554Z,58.50
2018-03-31T21:23:58.634Z,54.63
2018-03-31T21:26:25.733Z,57.47
2018-03-31T21:28:52.817Z,62.07
2018-03-31T21:31:20.653Z,55.33
2018-03-31T21:33:47.725Z,55.60
2018-03-31T21:36:15.561Z,54.60
2018-03-31T21:38:42.654Z,51.80
2018-03-31T21:41:09.740Z,53.03
2018-03-31T21:43:36.812Z,55.40
2018-03-31T21:46:04.186Z,51.70
2018-03-31T21:48:31.264Z,48.87
2018-03-31T21:50:58.330Z,52.73
2018-03-31T21:53:25.393Z,50.83
2018-03-31T21:55:52.453Z,49.37
2018-03-31T21:58:19.525Z,51.10
2018-03-31T22:00:46.584Z,53.63
2018-03-31T22:03:14.436Z,51.47
2018-03-31T22:05:41.569Z,50.13
2018-03-31T22:08:08.623Z,50.60
2018-03-31T22:10:35.698Z,52.80
2018-03-31T22:13:08.561Z,53.07
2018-03-31T22:15:41.285Z,52.47
2018-03-31T22:18:08.344Z,51.40
2018-03-31T22:20:35.409Z,53.00
2018-03-31T22:23:02.490Z,56.50
2018-03-31T22:25:29.576Z,58.47
2018-03-31T22:27:56.653Z,56.70
2018-03-31T22:30:24.577Z,60.72
2018-03-31T22:32:52.395Z,56.27
2018-03-31T22:35:19.469Z,57.13
2018-03-31T22:37:46.534Z,56.17
2018-03-31T22:40:14.442Z,56.17
2018-03-31T22:42:41.496Z,54.93
2018-03-31T22:45:08.584Z,55.33
2018-03-31T22:47:35.667Z,53.37
2018-03-31T22:50:02.728Z,54.70
2018-03-31T22:52:29.816Z,58.80
2018-03-31T22:54:56.849Z,54.47
2018-03-31T22:57:23.910Z,59.70
2018-03-31T22:59:50.995Z,57.27
2018-03-31T23:02:18.082Z,60.08
2018-03-31T23:04:45.161Z,64.70
2018-03-31T23:07:13.043Z,67.15
2018-03-31T23:09:40.133Z,66.00
2018-03-31T23:12:07.179Z,64.13
2018-03-31T23:14:34.360Z,58.70
2018-03-31T23:17:01.429Z,62.10
2018-03-31T23:19:28.504Z,59.70
2018-03-31T23:21:55.603Z,58.33
2018-03-31T23:24:22.653Z,57.08
2018-03-31T23:26:49.701Z,57.58
2018-03-31T23:29:16.797Z,56.85
2018-03-31T23:31:43.890Z,55.90
2018-03-31T23:34:10.966Z,57.62
2018-03-31T23:36:38.843Z,50.75
2018-03-31T23:39:06.674Z,50.33
2018-03-31T23:41:33.782Z,54.80
2018-03-31T23:44:00.883Z,50.22
2018-03-31T23:46:27.948Z,50.33
2018-03-31T23:48:55.779Z,49.78
2018-03-31T23:51:23.646Z,48.38
2018-03-31T23:53:51.475Z,47.45
2018-03-31T23:56:18.546Z,46.25
2018-03-31T23:58:45.668Z,47.42
